createdAt,value
2018-07-22T00:00:50.093Z,18.34
2018-07-22T00:01:50.030Z,18.33
2018-07-22T00:02:49.968Z,18.27
2018-07-22T00:03:49.909Z,18.33
2018-07-22T00:04:49.848Z,18.45
2018-07-22T00:05:49.791Z,18.36
2018-07-22T00:06:49.729Z,18.30
2018-07-22T00:07:49.667Z,18.30
2018-07-22T00:08:49.607Z,18.30
2018-07-22T00:09:49.549Z,18.28
2018-07-22T00:10:49.488Z,18.33
2018-07-22T00:11:49.424Z,18.30
2018-07-22T00:12:49.366Z,18.36
2018-07-22T00:13:49.307Z,18.31
2018-07-22T00:14:49.244Z,18.26
2018-07-22T00:15:49.187Z,18.33
2018-07-22T00:16:49.123Z,18.33
2018-07-22T00:17:49.064Z,18.38
2018-07-22T00:18:49.005Z,18.34
2018-07-22T00:19:48.945Z,18.36
2018-07-22T00:20:48.882Z,18.38
2018-07-22T00:21:48.823Z,18.39
2018-07-22T00:22:48.762Z,18.33
2018-07-22T00:23:48.705Z,18.34
2018-07-22T00:24:48.644Z,18.41
2018-07-22T00:25:48.577Z,18.28
2018-07-22T00:26:48.521Z,18.30
2018-07-22T00:27:48.461Z,18.36
2018-07-22T00:28:48.402Z,18.28
2018-07-22T00:29:48.341Z,18.38
2018-07-22T00:30:48.280Z,18.36
2018-07-22T00:31:48.220Z,18.34
2018-07-22T00:32:48.159Z,18.23
2018-07-22T00:33:48.101Z,18.31
2018-07-22T00:34:48.040Z,18.28
2018-07-22T00:35:47.976Z,18.36
2018-07-22T00:36:47.919Z,18.31
2018-07-22T00:37:47.858Z,18.28
2018-07-22T00:38:47.797Z,18.28
2018-07-22T00:39:47.737Z,18.26
2018-07-22T00:40:47.677Z,18.31
2018-07-22T00:41:47.615Z,18.26
2018-07-22T00:42:47.556Z,18.28
2018-07-22T00:43:47.496Z,18.33
2018-07-22T00:44:47.435Z,18.36
2018-07-22T00:45:47.374Z,18.28
2018-07-22T00:46:47.315Z,18.34
2018-07-22T00:47:47.256Z,18.38
2018-07-22T00:48:47.196Z,18.34
2018-07-22T00:49:47.135Z,18.39
2018-07-22T00:50:47.075Z,18.28
2018-07-22T00:51:47.014Z,18.33
2018-07-22T00:52:46.955Z,18.27
2018-07-22T00:53:46.897Z,18.31
2018-07-22T00:54:46.830Z,18.31
2018-07-22T00:55:46.772Z,18.31
2018-07-22T00:56:46.710Z,18.33
2018-07-22T00:57:46.652Z,18.33
2018-07-22T00:58:46.590Z,18.33
2018-07-22T00:59:46.530Z,18.30
2018-07-22T01:00:46.472Z,18.33
2018-07-22T01:01:46.410Z,18.30
2018-07-22T01:02:46.350Z,18.36
2018-07-22T01:03:46.291Z,18.27
2018-07-22T01:04:46.230Z,18.31
2018-07-22T01:05:46.168Z,18.33
2018-07-22T01:06:46.107Z,18.27
2018-07-22T01:07:46.049Z,18.33
2018-07-22T01:08:45.986Z,18.28
2018-07-22T01:09:45.927Z,18.28
2018-07-22T01:10:45.866Z,18.33
2018-07-22T01:11:45.807Z,18.33
2018-07-22T01:12:45.746Z,18.24
2018-07-22T01:13:45.687Z,18.20
2018-07-22T01:14:45.625Z,18.27
2018-07-22T01:15:45.566Z,18.26
2018-07-22T01:16:45.547Z,18.21
2018-07-22T01:17:45.447Z,18.27
2018-07-22T01:18:45.384Z,18.20
2018-07-22T01:19:45.325Z,18.24
2018-07-22T01:20:45.262Z,18.27
2018-07-22T01:21:45.204Z,18.26
2018-07-22T01:22:45.143Z,18.33
2018-07-22T01:23:45.080Z,18.17
2018-07-22T01:24:45.022Z,18.23
2018-07-22T01:25:44.960Z,18.27
2018-07-22T01:26:44.899Z,18.28
2018-07-22T01:27:44.841Z,18.20
2018-07-22T01:28:44.778Z,18.18
2018-07-22T01:29:44.719Z,18.23
2018-07-22T01:30:44.660Z,18.26
2018-07-22T01:31:44.601Z,18.23
2018-07-22T01:32:44.540Z,18.23
2018-07-22T01:33:44.477Z,18.26
2018-07-22T01:34:44.416Z,18.20
2018-07-22T01:35:44.356Z,18.15
2018-07-22T01:36:44.300Z,18.17
2018-07-22T01:37:44.236Z,18.21
2018-07-22T01:38:44.174Z,18.18
2018-07-22T01:39:44.116Z,18.27
2018-07-22T01:40:44.056Z,18.26
2018-07-22T01:41:43.995Z,18.17
2018-07-22T01:42:43.937Z,18.23
2018-07-22T01:43:43.874Z,18.24
2018-07-22T01:44:43.814Z,18.24
2018-07-22T01:45:43.753Z,18.18
2018-07-22T01:46:43.693Z,18.17
2018-07-22T01:47:43.633Z,18.15
2018-07-22T01:48:43.575Z,18.17
2018-07-22T01:49:43.510Z,18.20
2018-07-22T01:50:43.451Z,18.20
2018-07-22T01:51:43.390Z,18.15
2018-07-22T01:52:43.331Z,18.17
2018-07-22T01:53:43.270Z,18.13
2018-07-22T01:54:43.210Z,18.21
2018-07-22T01:55:43.149Z,18.17
2018-07-22T01:56:43.092Z,18.13
2018-07-22T01:57:43.028Z,18.24
2018-07-22T01:58:42.969Z,18.12
2018-07-22T01:59:42.907Z,18.15
2018-07-22T02:00:42.848Z,18.23
2018-07-22T02:01:42.861Z,18.18
2018-07-22T02:02:42.727Z,18.18
2018-07-22T02:03:42.667Z,18.15
2018-07-22T02:04:42.612Z,18.17
2018-07-22T02:05:42.549Z,18.20
2018-07-22T02:06:42.485Z,18.13
2018-07-22T02:07:42.425Z,18.15
2018-07-22T02:08:42.365Z,18.23
2018-07-22T02:09:42.305Z,18.18
2018-07-22T02:10:42.244Z,18.18
2018-07-22T02:11:42.185Z,18.18
2018-07-22T02:12:42.127Z,18.17
2018-07-22T02:13:42.065Z,18.18
2018-07-22T02:14:42.004Z,18.20
2018-07-22T02:15:41.944Z,18.27
2018-07-22T02:16:41.881Z,18.21
2018-07-22T02:17:41.822Z,18.21
2018-07-22T02:18:41.760Z,18.17
2018-07-22T02:19:41.700Z,18.20
2018-07-22T02:20:41.657Z,18.17
2018-07-22T02:21:41.580Z,18.18
2018-07-22T02:22:41.519Z,18.12
2018-07-22T02:23:41.458Z,18.09
2018-07-22T02:24:41.399Z,18.15
2018-07-22T02:25:41.338Z,18.15
2018-07-22T02:26:41.280Z,18.17
2018-07-22T02:27:41.219Z,18.13
2018-07-22T02:28:41.158Z,18.15
2018-07-22T02:29:41.099Z,18.13
2018-07-22T02:30:41.036Z,18.12
2018-07-22T02:31:40.976Z,18.11
2018-07-22T02:32:40.916Z,18.17
2018-07-22T02:33:40.858Z,18.11
2018-07-22T02:34:40.798Z,18.13
2018-07-22T02:35:40.737Z,18.15
2018-07-22T02:36:40.676Z,18.11
2018-07-22T02:37:40.614Z,18.12
2018-07-22T02:38:40.554Z,18.20
2018-07-22T02:39:40.492Z,18.12
2018-07-22T02:40:40.435Z,18.15
2018-07-22T02:41:40.374Z,18.11
2018-07-22T02:42:40.311Z,18.11
2018-07-22T02:43:40.253Z,18.13
2018-07-22T02:44:40.191Z,18.12
2018-07-22T02:45:40.132Z,18.20
2018-07-22T02:46:40.072Z,18.12
2018-07-22T02:47:40.007Z,18.15
2018-07-22T02:48:39.949Z,18.17
2018-07-22T02:49:39.920Z,18.17
2018-07-22T02:50:39.860Z,18.12
2018-07-22T02:51:39.790Z,18.17
2018-07-22T02:52:39.756Z,18.05
2018-07-22T02:53:39.655Z,18.09
2018-07-22T02:54:39.587Z,18.17
2018-07-22T02:55:39.526Z,18.11
2018-07-22T02:56:39.467Z,18.12
2018-07-22T02:57:39.405Z,18.11
2018-07-22T02:58:39.344Z,18.18
2018-07-22T02:59:39.312Z,18.18
2018-07-22T03:00:39.227Z,18.15
2018-07-22T03:01:39.165Z,18.18
2018-07-22T03:02:39.103Z,18.15
2018-07-22T03:03:39.045Z,18.12
2018-07-22T03:04:38.983Z,18.12
2018-07-22T03:05:38.925Z,18.13
2018-07-22T03:06:38.864Z,18.11
2018-07-22T03:07:38.806Z,18.03
2018-07-22T03:08:38.742Z,18.09
2018-07-22T03:09:38.683Z,18.12
2018-07-22T03:10:38.622Z,18.01
2018-07-22T03:11:38.559Z,18.02
2018-07-22T03:12:38.501Z,18.06
2018-07-22T03:13:38.441Z,18.01
2018-07-22T03:14:38.379Z,17.96
2018-07-22T03:15:38.329Z,18.01
2018-07-22T03:16:38.259Z,17.93
2018-07-22T03:17:38.196Z,17.96
2018-07-22T03:18:38.137Z,17.93
2018-07-22T03:19:38.077Z,17.91
2018-07-22T03:20:38.017Z,17.96
2018-07-22T03:21:37.955Z,17.93
2018-07-22T03:22:37.895Z,17.93
2018-07-22T03:23:37.836Z,17.94
2018-07-22T03:24:37.774Z,17.91
2018-07-22T03:25:37.713Z,17.90
2018-07-22T03:26:37.652Z,17.99
2018-07-22T03:27:37.594Z,17.90
2018-07-22T03:28:37.533Z,17.93
2018-07-22T03:29:37.474Z,17.88
2018-07-22T03:30:37.410Z,17.87
2018-07-22T03:31:37.352Z,17.93
2018-07-22T03:32:37.290Z,17.84
2018-07-22T03:33:37.230Z,17.91
2018-07-22T03:34:37.168Z,17.94
2018-07-22T03:35:37.110Z,17.88
2018-07-22T03:36:37.049Z,17.88
2018-07-22T03:37:36.990Z,17.88
2018-07-22T03:38:36.927Z,17.91
2018-07-22T03:39:36.868Z,17.94
2018-07-22T03:40:36.806Z,18.03
2018-07-22T03:41:36.747Z,17.94
2018-07-22T03:42:36.689Z,17.93
2018-07-22T03:43:36.629Z,17.94
2018-07-22T03:44:36.562Z,17.97
2018-07-22T03:45:36.504Z,17.88
2018-07-22T03:46:36.443Z,17.94
2018-07-22T03:47:36.388Z,17.96
2018-07-22T03:48:36.325Z,17.94
2018-07-22T03:49:36.260Z,17.94
2018-07-22T03:50:36.199Z,17.94
2018-07-22T03:51:36.144Z,17.99
2018-07-22T03:52:36.080Z,18.01
2018-07-22T03:53:36.025Z,17.99
2018-07-22T03:54:35.960Z,17.88
2018-07-22T03:55:35.900Z,17.94
2018-07-22T03:56:35.839Z,18.02
2018-07-22T03:57:35.781Z,17.93
2018-07-22T03:58:35.717Z,17.97
2018-07-22T03:59:35.656Z,18.01
2018-07-22T04:00:35.619Z,18.01
2018-07-22T04:01:35.536Z,17.97
2018-07-22T04:02:35.472Z,18.03
2018-07-22T04:03:35.414Z,18.01
2018-07-22T04:04:35.353Z,18.01
2018-07-22T04:05:35.295Z,17.99
2018-07-22T04:06:35.232Z,18.03
2018-07-22T04:07:35.172Z,18.05
2018-07-22T04:08:35.112Z,18.02
2018-07-22T04:09:35.053Z,18.01
2018-07-22T04:10:34.993Z,18.02
2018-07-22T04:11:34.930Z,18.05
2018-07-22T04:12:34.872Z,18.05
2018-07-22T04:13:34.810Z,18.02
2018-07-22T04:14:34.748Z,17.97
2018-07-22T04:15:34.689Z,18.03
2018-07-22T04:16:34.628Z,18.01
2018-07-22T04:17:34.568Z,18.06
2018-07-22T04:18:34.506Z,18.09
2018-07-22T04:19:34.451Z,18.05
2018-07-22T04:20:34.386Z,17.93
2018-07-22T04:21:34.326Z,18.05
2018-07-22T04:22:34.265Z,17.93
2018-07-22T04:23:34.205Z,18.03
2018-07-22T04:24:34.145Z,18.05
2018-07-22T04:25:34.085Z,18.06
2018-07-22T04:26:34.022Z,18.05
2018-07-22T04:27:33.965Z,18.01
2018-07-22T04:28:33.906Z,18.01
2018-07-22T04:29:33.842Z,18.08
2018-07-22T04:30:33.781Z,18.08
2018-07-22T04:31:33.720Z,18.06
2018-07-22T04:32:33.662Z,18.06
2018-07-22T04:33:33.601Z,18.06
2018-07-22T04:34:33.540Z,18.03
2018-07-22T04:35:33.478Z,18.06
2018-07-22T04:36:33.418Z,18.08
2018-07-22T04:37:33.358Z,18.06
2018-07-22T04:38:33.299Z,18.08
2018-07-22T04:39:33.238Z,18.12
2018-07-22T04:40:33.175Z,18.15
2018-07-22T04:41:33.120Z,18.17
2018-07-22T04:42:33.057Z,18.15
2018-07-22T04:43:32.995Z,18.03
2018-07-22T04:44:32.934Z,18.18
2018-07-22T04:45:32.876Z,18.03
2018-07-22T04:46:32.814Z,18.05
2018-07-22T04:47:32.754Z,18.11
2018-07-22T04:48:32.694Z,18.02
2018-07-22T04:49:32.632Z,18.08
2018-07-22T04:50:32.572Z,18.03
2018-07-22T04:51:32.510Z,18.12
2018-07-22T04:52:32.450Z,18.09
2018-07-22T04:53:32.423Z,18.11
2018-07-22T04:54:32.329Z,18.15
2018-07-22T04:55:32.271Z,18.08
2018-07-22T04:56:32.209Z,18.09
2018-07-22T04:57:32.152Z,18.15
2018-07-22T04:58:32.088Z,18.17
2018-07-22T04:59:32.029Z,18.12
2018-07-22T05:00:31.967Z,18.11
2018-07-22T05:01:31.906Z,18.18
2018-07-22T05:02:31.847Z,18.12
2018-07-22T05:03:31.786Z,18.12
2018-07-22T05:04:31.725Z,18.13
2018-07-22T05:05:31.666Z,18.15
2018-07-22T05:06:31.605Z,18.18
2018-07-22T05:07:31.545Z,18.15
2018-07-22T05:08:31.483Z,18.24
2018-07-22T05:09:31.425Z,18.21
2018-07-22T05:10:31.362Z,18.23
2018-07-22T05:11:31.304Z,18.17
2018-07-22T05:12:31.241Z,18.31
2018-07-22T05:13:31.181Z,18.18
2018-07-22T05:14:31.124Z,18.17
2018-07-22T05:15:31.063Z,18.27
2018-07-22T05:16:31.004Z,18.34
2018-07-22T05:17:30.938Z,18.17
2018-07-22T05:18:30.878Z,18.17
2018-07-22T05:19:30.818Z,18.23
2018-07-22T05:20:30.759Z,18.24
2018-07-22T05:21:30.699Z,18.20
2018-07-22T05:22:30.636Z,18.23
2018-07-22T05:23:30.579Z,18.23
2018-07-22T05:24:30.516Z,18.27
2018-07-22T05:25:30.458Z,18.27
2018-07-22T05:26:30.407Z,18.28
2018-07-22T05:27:30.336Z,18.30
2018-07-22T05:28:30.275Z,18.39
2018-07-22T05:29:30.238Z,18.28
2018-07-22T05:30:30.155Z,18.24
2018-07-22T05:31:30.094Z,18.38
2018-07-22T05:32:30.033Z,18.30
2018-07-22T05:33:29.974Z,18.23
2018-07-22T05:34:29.912Z,18.28
2018-07-22T05:35:29.850Z,18.30
2018-07-22T05:36:29.792Z,18.36
2018-07-22T05:37:29.731Z,18.33
2018-07-22T05:38:29.672Z,18.38
2018-07-22T05:39:29.610Z,18.28
2018-07-22T05:40:29.552Z,18.34
2018-07-22T05:41:29.489Z,18.28
2018-07-22T05:42:29.429Z,18.30
2018-07-22T05:43:29.369Z,18.46
2018-07-22T05:44:29.311Z,18.28
2018-07-22T05:45:29.251Z,18.33
2018-07-22T05:46:29.189Z,18.27
2018-07-22T05:47:29.128Z,18.31
2018-07-22T05:48:29.067Z,18.33
2018-07-22T05:49:29.008Z,18.31
2018-07-22T05:50:28.946Z,18.39
2018-07-22T05:51:28.886Z,18.39
2018-07-22T05:52:28.830Z,18.34
2018-07-22T05:53:28.769Z,18.42
2018-07-22T05:54:28.705Z,18.38
2018-07-22T05:55:28.646Z,18.42
2018-07-22T05:56:28.587Z,18.36
2018-07-22T05:57:28.526Z,18.43
2018-07-22T05:58:28.463Z,18.43
2018-07-22T05:59:28.411Z,18.45
2018-07-22T06:00:28.347Z,18.43
2018-07-22T06:01:28.285Z,18.54
2018-07-22T06:02:28.225Z,18.42
2018-07-22T06:03:28.165Z,18.48
2018-07-22T06:04:28.102Z,18.52
2018-07-22T06:05:28.039Z,18.51
2018-07-22T06:06:27.984Z,18.41
2018-07-22T06:07:27.923Z,18.45
2018-07-22T06:08:27.864Z,18.52
2018-07-22T06:09:27.803Z,18.51
2018-07-22T06:10:27.742Z,18.56
2018-07-22T06:11:27.683Z,18.51
2018-07-22T06:12:27.621Z,18.54
2018-07-22T06:13:27.563Z,18.56
2018-07-22T06:14:27.504Z,18.57
2018-07-22T06:15:27.444Z,18.60
2018-07-22T06:16:27.382Z,18.63
2018-07-22T06:17:27.322Z,18.60
2018-07-22T06:18:27.261Z,18.64
2018-07-22T06:19:27.201Z,18.63
2018-07-22T06:20:27.141Z,18.67
2018-07-22T06:21:27.081Z,18.51
2018-07-22T06:22:27.021Z,18.63
2018-07-22T06:23:26.973Z,18.66
2018-07-22T06:24:26.900Z,18.64
2018-07-22T06:25:26.839Z,18.63
2018-07-22T06:26:26.784Z,18.68
2018-07-22T06:27:26.722Z,18.70
2018-07-22T06:28:26.660Z,18.60
2018-07-22T06:29:26.601Z,18.74
2018-07-22T06:30:26.543Z,18.67
2018-07-22T06:31:26.482Z,18.74
2018-07-22T06:32:26.432Z,18.78
2018-07-22T06:33:26.361Z,18.75
2018-07-22T06:34:26.300Z,18.81
2018-07-22T06:35:26.245Z,18.81
2018-07-22T06:36:26.181Z,18.70
2018-07-22T06:37:26.120Z,18.75
2018-07-22T06:38:26.061Z,18.81
2018-07-22T06:39:26.000Z,18.81
2018-07-22T06:40:25.940Z,18.85
2018-07-22T06:41:25.880Z,18.89
2018-07-22T06:42:25.819Z,18.82
2018-07-22T06:43:25.761Z,18.89
2018-07-22T06:44:25.700Z,18.86
2018-07-22T06:45:25.641Z,18.93
2018-07-22T06:46:25.581Z,18.88
2018-07-22T06:47:25.525Z,18.89
2018-07-22T06:48:25.461Z,18.97
2018-07-22T06:49:25.417Z,18.97
2018-07-22T06:50:25.338Z,19.04
2018-07-22T06:51:25.281Z,19.08
2018-07-22T06:52:25.221Z,19.01
2018-07-22T06:53:25.176Z,19.07
2018-07-22T06:54:25.134Z,19.08
2018-07-22T06:55:25.045Z,19.05
2018-07-22T06:56:24.986Z,19.15
2018-07-22T06:57:24.920Z,19.19
2018-07-22T06:58:24.868Z,19.22
2018-07-22T06:59:24.802Z,19.17
2018-07-22T07:00:24.742Z,19.17
2018-07-22T07:01:24.683Z,19.23
2018-07-22T07:02:24.622Z,19.20
2018-07-22T07:03:24.561Z,19.31
2018-07-22T07:04:24.503Z,19.22
2018-07-22T07:05:24.494Z,19.35
2018-07-22T07:06:24.383Z,19.42
2018-07-22T07:07:24.323Z,19.41
2018-07-22T07:08:24.301Z,19.44
2018-07-22T07:09:24.206Z,19.35
2018-07-22T07:10:24.147Z,19.38
2018-07-22T07:11:24.083Z,19.39
2018-07-22T07:12:24.024Z,19.37
2018-07-22T07:13:23.967Z,19.37
2018-07-22T07:14:23.905Z,19.39
2018-07-22T07:15:23.845Z,19.42
2018-07-22T07:16:23.788Z,19.45
2018-07-22T07:17:23.728Z,19.41
2018-07-22T07:18:23.667Z,19.39
2018-07-22T07:19:23.606Z,19.39
2018-07-22T07:20:23.550Z,19.42
2018-07-22T07:21:23.488Z,19.37
2018-07-22T07:22:23.431Z,19.52
2018-07-22T07:23:23.369Z,19.47
2018-07-22T07:24:23.313Z,19.42
2018-07-22T07:25:23.250Z,19.45
2018-07-22T07:26:23.190Z,19.49
2018-07-22T07:27:23.131Z,19.42
2018-07-22T07:28:23.073Z,19.49
2018-07-22T07:29:23.011Z,19.45
2018-07-22T07:30:22.954Z,19.45
2018-07-22T07:31:22.892Z,19.39
2018-07-22T07:32:22.832Z,19.56
2018-07-22T07:33:22.774Z,19.50
2018-07-22T07:34:22.772Z,19.52
2018-07-22T07:35:22.655Z,19.56
2018-07-22T07:36:22.598Z,19.56
2018-07-22T07:37:22.536Z,19.53
2018-07-22T07:38:22.474Z,19.39
2018-07-22T07:39:22.416Z,19.42
2018-07-22T07:40:22.356Z,19.42
2018-07-22T07:41:22.300Z,19.42
2018-07-22T07:42:22.275Z,19.37
2018-07-22T07:43:22.177Z,19.39
2018-07-22T07:44:22.119Z,19.37
2018-07-22T07:45:22.057Z,19.41
2018-07-22T07:46:21.999Z,19.39
2018-07-22T07:47:21.939Z,19.41
2018-07-22T07:48:21.880Z,19.39
2018-07-22T07:49:21.819Z,19.38
2018-07-22T07:50:21.758Z,19.39
2018-07-22T07:51:21.699Z,19.38
2018-07-22T07:52:21.640Z,19.39
2018-07-22T07:53:21.585Z,19.42
2018-07-22T07:54:21.523Z,19.39
2018-07-22T07:55:21.462Z,19.42
2018-07-22T07:56:21.401Z,19.37
2018-07-22T07:57:21.342Z,19.44
2018-07-22T07:58:21.283Z,19.42
2018-07-22T07:59:21.224Z,19.37
2018-07-22T08:00:21.164Z,19.42
2018-07-22T08:01:21.104Z,19.42
2018-07-22T08:02:21.043Z,19.44
2018-07-22T08:03:20.984Z,19.44
2018-07-22T08:04:20.926Z,19.37
2018-07-22T08:05:20.866Z,19.39
2018-07-22T08:06:20.806Z,19.37
2018-07-22T08:07:20.747Z,19.39
2018-07-22T08:08:20.685Z,19.45
2018-07-22T08:09:20.627Z,19.41
2018-07-22T08:10:20.566Z,19.39
2018-07-22T08:11:20.509Z,19.38
2018-07-22T08:12:20.449Z,19.47
2018-07-22T08:13:20.388Z,19.52
2018-07-22T08:14:20.330Z,19.54
2018-07-22T08:15:20.268Z,19.53
2018-07-22T08:16:20.209Z,19.54
2018-07-22T08:17:20.155Z,19.54
2018-07-22T08:18:20.090Z,19.59
2018-07-22T08:19:20.034Z,19.60
2018-07-22T08:20:19.972Z,19.64
2018-07-22T08:21:19.931Z,19.70
2018-07-22T08:22:19.852Z,19.77
2018-07-22T08:23:19.793Z,19.75
2018-07-22T08:24:19.732Z,19.75
2018-07-22T08:25:19.673Z,19.86
2018-07-22T08:26:19.614Z,19.90
2018-07-22T08:27:19.553Z,19.86
2018-07-22T08:28:19.493Z,19.93
2018-07-22T08:29:19.438Z,19.99
2018-07-22T08:30:19.377Z,20.12
2018-07-22T08:31:19.317Z,20.23
2018-07-22T08:32:19.260Z,20.33
2018-07-22T08:33:19.198Z,20.34
2018-07-22T08:34:19.140Z,20.37
2018-07-22T08:35:19.081Z,20.36
2018-07-22T08:36:19.023Z,20.52
2018-07-22T08:37:18.962Z,20.56
2018-07-22T08:38:18.904Z,20.58
2018-07-22T08:39:18.846Z,20.50
2018-07-22T08:40:18.787Z,20.63
2018-07-22T08:41:18.745Z,20.61
2018-07-22T08:42:18.668Z,20.52
2018-07-22T08:43:18.611Z,20.49
2018-07-22T08:44:18.551Z,20.55
2018-07-22T08:45:18.496Z,20.41
2018-07-22T08:46:18.433Z,20.37
2018-07-22T08:47:18.375Z,20.39
2018-07-22T08:48:18.316Z,20.33
2018-07-22T08:49:18.256Z,20.33
2018-07-22T08:50:18.197Z,20.36
2018-07-22T08:51:18.138Z,20.33
2018-07-22T08:52:18.081Z,20.34
2018-07-22T08:53:18.042Z,20.34
2018-07-22T08:54:17.960Z,20.36
2018-07-22T08:55:17.904Z,20.42
2018-07-22T08:56:17.842Z,20.39
2018-07-22T08:57:17.786Z,20.50
2018-07-22T08:58:17.729Z,20.58
2018-07-22T08:59:17.668Z,20.75
2018-07-22T09:00:17.609Z,20.92
2018-07-22T09:01:17.551Z,20.82
2018-07-22T09:02:17.492Z,20.93
2018-07-22T09:03:17.433Z,21.04
2018-07-22T09:04:17.376Z,21.10
2018-07-22T09:05:17.317Z,21.05
2018-07-22T09:06:17.260Z,21.01
2018-07-22T09:07:17.198Z,21.03
2018-07-22T09:08:17.158Z,21.03
2018-07-22T09:09:17.086Z,21.07
2018-07-22T09:10:17.024Z,21.10
2018-07-22T09:11:16.969Z,21.05
2018-07-22T09:12:16.911Z,21.10
2018-07-22T09:13:16.852Z,20.98
2018-07-22T09:14:16.792Z,21.04
2018-07-22T09:15:16.732Z,20.97
2018-07-22T09:16:16.674Z,20.82
2018-07-22T09:17:16.620Z,20.74
2018-07-22T09:18:16.556Z,20.74
2018-07-22T09:19:16.500Z,20.60
2018-07-22T09:20:16.441Z,20.53
2018-07-22T09:21:16.382Z,20.63
2018-07-22T09:22:16.323Z,20.58
2018-07-22T09:23:16.268Z,20.63
2018-07-22T09:24:16.206Z,20.58
2018-07-22T09:25:16.150Z,20.60
2018-07-22T09:26:16.094Z,20.58
2018-07-22T09:27:16.031Z,20.55
2018-07-22T09:28:15.975Z,20.61
2018-07-22T09:29:15.913Z,20.58
2018-07-22T09:30:15.855Z,20.58
2018-07-22T09:31:15.797Z,20.63
2018-07-22T09:32:15.737Z,20.63
2018-07-22T09:33:15.681Z,20.60
2018-07-22T09:34:15.661Z,20.63
2018-07-22T09:35:15.560Z,20.70
2018-07-22T09:36:15.663Z,20.77
2018-07-22T09:37:15.445Z,20.82
2018-07-22T09:38:15.385Z,20.88
2018-07-22T09:39:15.328Z,20.88
2018-07-22T09:40:15.269Z,20.97
2018-07-22T09:41:15.217Z,21.01
2018-07-22T09:42:15.152Z,20.95
2018-07-22T09:43:15.098Z,21.04
2018-07-22T09:44:15.038Z,20.98
2018-07-22T09:45:14.978Z,21.00
2018-07-22T09:46:14.915Z,20.95
2018-07-22T09:47:14.859Z,20.93
2018-07-22T09:48:14.853Z,21.01
2018-07-22T09:49:14.745Z,20.93
2018-07-22T09:50:14.682Z,21.03
2018-07-22T09:51:14.625Z,20.88
2018-07-22T09:52:14.568Z,20.98
2018-07-22T09:53:14.509Z,20.93
2018-07-22T09:54:14.448Z,20.95
2018-07-22T09:55:14.391Z,20.90
2018-07-22T09:56:14.336Z,20.92
2018-07-22T09:57:14.274Z,20.98
2018-07-22T09:58:14.216Z,20.92
2018-07-22T09:59:14.166Z,20.90
2018-07-22T10:00:14.102Z,20.88
2018-07-22T10:01:14.082Z,20.97
2018-07-22T10:02:13.982Z,20.85
2018-07-22T10:03:13.922Z,20.92
2018-07-22T10:04:13.867Z,20.86
2018-07-22T10:05:13.806Z,20.79
2018-07-22T10:06:13.748Z,20.82
2018-07-22T10:07:13.687Z,20.75
2018-07-22T10:08:13.629Z,20.83
2018-07-22T10:09:13.571Z,20.98
2018-07-22T10:10:13.513Z,20.86
2018-07-22T10:11:13.467Z,20.90
2018-07-22T10:12:13.396Z,20.82
2018-07-22T10:13:13.340Z,20.82
2018-07-22T10:14:13.279Z,20.88
2018-07-22T10:15:13.219Z,20.97
2018-07-22T10:16:13.162Z,20.97
2018-07-22T10:17:13.103Z,21.10
2018-07-22T10:18:13.043Z,21.05
2018-07-22T10:19:12.986Z,21.14
2018-07-22T10:20:12.927Z,21.07
2018-07-22T10:21:12.868Z,21.22
2018-07-22T10:22:12.809Z,21.20
2018-07-22T10:23:12.752Z,21.20
2018-07-22T10:24:12.693Z,21.11
2018-07-22T10:25:12.638Z,21.05
2018-07-22T10:26:12.575Z,21.11
2018-07-22T10:27:12.517Z,21.05
2018-07-22T10:28:12.458Z,21.11
2018-07-22T10:29:12.401Z,21.03
2018-07-22T10:30:12.342Z,21.05
2018-07-22T10:31:12.284Z,21.08
2018-07-22T10:32:12.224Z,21.08
2018-07-22T10:33:12.167Z,21.05
2018-07-22T10:34:12.106Z,21.05
2018-07-22T10:35:12.049Z,21.04
2018-07-22T10:36:11.990Z,20.98
2018-07-22T10:37:11.932Z,20.93
2018-07-22T10:38:11.872Z,21.07
2018-07-22T10:39:11.819Z,21.04
2018-07-22T10:40:11.756Z,21.10
2018-07-22T10:41:11.700Z,21.04
2018-07-22T10:42:11.636Z,21.10
2018-07-22T10:43:11.608Z,21.11
2018-07-22T10:44:11.522Z,21.10
2018-07-22T10:45:11.465Z,21.10
2018-07-22T10:46:11.403Z,21.05
2018-07-22T10:47:11.344Z,20.98
2018-07-22T10:48:11.286Z,20.90
2018-07-22T10:49:11.227Z,20.83
2018-07-22T10:50:11.169Z,20.82
2018-07-22T10:51:11.110Z,20.75
2018-07-22T10:52:11.053Z,20.68
2018-07-22T10:53:10.993Z,20.65
2018-07-22T10:54:10.934Z,20.61
2018-07-22T10:55:10.875Z,20.56
2018-07-22T10:56:10.817Z,20.52
2018-07-22T10:57:10.758Z,20.39
2018-07-22T10:58:10.699Z,20.36
2018-07-22T10:59:10.643Z,20.42
2018-07-22T11:00:10.586Z,20.34
2018-07-22T11:01:10.525Z,20.34
2018-07-22T11:02:10.465Z,20.32
2018-07-22T11:03:10.439Z,20.23
2018-07-22T11:04:10.347Z,20.25
2018-07-22T11:05:10.288Z,20.27
2018-07-22T11:06:10.228Z,20.19
2018-07-22T11:07:10.172Z,20.17
2018-07-22T11:08:10.112Z,20.04
2018-07-22T11:09:10.055Z,19.97
2018-07-22T11:10:09.992Z,19.99
2018-07-22T11:11:09.931Z,19.94
2018-07-22T11:12:09.879Z,19.97
2018-07-22T11:13:09.816Z,19.82
2018-07-22T11:14:09.776Z,19.94
2018-07-22T11:15:09.702Z,19.92
2018-07-22T11:16:09.644Z,19.84
2018-07-22T11:17:09.580Z,19.89
2018-07-22T11:18:09.526Z,19.89
2018-07-22T11:19:09.460Z,19.74
2018-07-22T11:20:09.400Z,19.75
2018-07-22T11:21:09.454Z,19.67
2018-07-22T11:22:09.284Z,19.71
2018-07-22T11:23:09.225Z,19.63
2018-07-22T11:24:09.166Z,19.56
2018-07-22T11:25:09.106Z,19.54
2018-07-22T11:26:09.046Z,19.52
2018-07-22T11:27:08.989Z,19.49
2018-07-22T11:28:08.928Z,19.42
2018-07-22T11:29:08.922Z,19.37
2018-07-22T11:30:08.810Z,19.38
2018-07-22T11:31:08.749Z,19.31
2018-07-22T11:32:08.690Z,19.31
2018-07-22T11:33:08.630Z,19.24
2018-07-22T11:34:08.570Z,19.32
2018-07-22T11:35:08.512Z,19.20
2018-07-22T11:36:08.518Z,19.26
2018-07-22T11:37:08.392Z,19.32
2018-07-22T11:38:08.333Z,19.22
2018-07-22T11:39:08.271Z,19.16
2018-07-22T11:40:08.212Z,19.19
2018-07-22T11:41:08.155Z,19.16
2018-07-22T11:42:08.094Z,19.17
2018-07-22T11:43:08.034Z,19.19
2018-07-22T11:44:07.975Z,19.20
2018-07-22T11:45:07.915Z,19.19
2018-07-22T11:46:07.856Z,19.17
2018-07-22T11:47:07.800Z,19.15
2018-07-22T11:48:07.737Z,19.20
2018-07-22T11:49:07.675Z,19.23
2018-07-22T11:50:07.617Z,19.32
2018-07-22T11:51:07.557Z,19.26
2018-07-22T11:52:07.496Z,19.23
2018-07-22T11:53:07.436Z,19.23
2018-07-22T11:54:07.377Z,19.32
2018-07-22T11:55:07.316Z,19.19
2018-07-22T11:56:07.258Z,19.23
2018-07-22T11:57:07.199Z,19.23
2018-07-22T11:58:07.135Z,19.26
2018-07-22T11:59:07.085Z,19.20
2018-07-22T12:00:07.023Z,19.22
2018-07-22T12:01:06.957Z,19.23
2018-07-22T12:02:06.898Z,19.22
2018-07-22T12:03:06.840Z,19.34
2018-07-22T12:04:06.778Z,19.31
2018-07-22T12:05:06.720Z,19.22
2018-07-22T12:06:06.664Z,19.27
2018-07-22T12:07:06.597Z,19.27
2018-07-22T12:08:06.539Z,19.37
2018-07-22T12:09:06.484Z,19.32
2018-07-22T12:10:06.419Z,19.27
2018-07-22T12:11:06.361Z,19.32
2018-07-22T12:12:06.332Z,19.31
2018-07-22T12:13:06.242Z,19.31
2018-07-22T12:14:06.180Z,19.27
2018-07-22T12:15:06.124Z,19.30
2018-07-22T12:16:06.060Z,19.37
2018-07-22T12:17:06.006Z,19.23
2018-07-22T12:18:05.941Z,19.17
2018-07-22T12:19:05.880Z,19.23
2018-07-22T12:20:05.823Z,19.27
2018-07-22T12:21:05.768Z,19.20
2018-07-22T12:22:05.701Z,19.24
2018-07-22T12:23:05.638Z,19.26
2018-07-22T12:24:05.581Z,19.23
2018-07-22T12:25:05.523Z,19.20
2018-07-22T12:26:05.461Z,19.27
2018-07-22T12:27:05.402Z,19.23
2018-07-22T12:28:05.369Z,19.24
2018-07-22T12:29:05.287Z,19.23
2018-07-22T12:30:05.222Z,19.31
2018-07-22T12:31:05.163Z,19.26
2018-07-22T12:32:05.104Z,19.32
2018-07-22T12:33:05.045Z,19.32
2018-07-22T12:34:04.983Z,19.39
2018-07-22T12:35:04.921Z,19.37
2018-07-22T12:36:04.869Z,19.37
2018-07-22T12:37:04.806Z,19.41
2018-07-22T12:38:04.748Z,19.39
2018-07-22T12:39:04.686Z,19.42
2018-07-22T12:40:04.626Z,19.44
2018-07-22T12:41:04.564Z,19.47
2018-07-22T12:42:04.507Z,19.54
2018-07-22T12:43:04.444Z,19.68
2018-07-22T12:44:04.386Z,19.63
2018-07-22T12:45:04.326Z,19.60
2018-07-22T12:46:04.265Z,19.75
2018-07-22T12:47:04.207Z,19.64
2018-07-22T12:48:04.146Z,19.74
2018-07-22T12:49:04.089Z,19.60
2018-07-22T12:50:04.027Z,19.67
2018-07-22T12:51:03.968Z,19.72
2018-07-22T12:52:03.909Z,19.77